Methodist Memorial Home, Indiana
Current Conditions -  °F | °C
As of 12:35 AM on Monday 20 Oct 2014 (Local Time) from KHHG Reporting Station
Drizzle Drizzle  
Wind Chill: 45°   Ceiling: 9000
Heat Index: 47°   Visibility: 10mi
Dew Point: 42°   Wind: 5mph
Humidity: 83%   Direction: 210°SSW
Pressure: 30"   Gusts: NA
Location:  40.6897°N, 85.3916°W
Report Text: KHHG 200435Z AUTO 21004KT 10SM -DZ OVC090 08/06 A3000 RMK AO2 T00830055
Loading
Personal Weather Stations






























Interactive Weather Map
Tropical Storm Tracking
New forecast layout! Learn more

10-Day Weather Forecast

Advertisements
Track Severe Weather on mobile